Time;durP1;ratioP1;P1;durP2;ratioP2;P2;SDS_P1;SDS_P2;PMS_P1;PMS_P2;Temp;Humidity;BMP_temperature;BMP_pressure;BME280_temperature;BME280_humidity;BME280_pressure;Samples;Min_cycle;Max_cycle;Signal;HPM_P1;HPM_P2
2022/03/19 00:02:21;;;;;;;15.43;10.70;;;3.30;99.90;;;;;;5020382;28;20363;-70
2022/03/19 00:04:48;;;;;;;18.55;11.20;;;3.30;99.90;;;;;;5018982;28;20054;-71
2022/03/19 00:07:15;;;;;;;16.50;12.13;;;3.20;99.90;;;;;;5020969;28;20043;-73
2022/03/19 00:09:43;;;;;;;20.17;12.75;;;3.10;99.90;;;;;;5020367;28;20129;-73
2022/03/19 00:12:14;;;;;;;21.63;12.10;;;3.30;99.90;;;;;;5005572;28;20098;-75
2022/03/19 00:14:42;;;;;;;17.15;12.18;;;3.50;99.90;;;;;;5023783;28;20038;-77
2022/03/19 00:17:10;;;;;;;17.50;12.23;;;3.40;99.90;;;;;;5024441;28;20781;-70
2022/03/19 00:19:38;;;;;;;17.83;11.95;;;3.50;99.90;;;;;;5005952;28;20058;-70
2022/03/19 00:22:07;;;;;;;16.80;12.20;;;3.40;99.90;;;;;;5005847;28;20068;-70
2022/03/19 00:24:36;;;;;;;16.80;11.35;;;3.50;99.90;;;;;;5005414;28;20054;-69
2022/03/19 00:27:04;;;;;;;18.20;12.00;;;3.50;99.90;;;;;;5023282;28;20045;-72
2022/03/19 00:29:31;;;;;;;19.27;12.77;;;3.40;99.90;;;;;;5024505;28;20044;-69
2022/03/19 00:31:58;;;;;;;15.85;11.70;;;3.40;99.90;;;;;;5006119;28;20038;-71
2022/03/19 00:34:26;;;;;;;17.50;11.63;;;3.50;99.90;;;;;;5022699;28;20038;-75
2022/03/19 00:36:53;;;;;;;17.13;11.88;;;3.50;99.90;;;;;;5022609;28;20374;-70
2022/03/19 00:39:21;;;;;;;18.10;12.40;;;3.40;99.90;;;;;;5023306;28;20048;-75
2022/03/19 00:41:48;;;;;;;16.80;12.55;;;3.50;99.90;;;;;;5022124;28;20429;-76
2022/03/19 00:44:15;;;;;;;16.58;12.20;;;3.60;99.90;;;;;;5014725;28;20049;-79
2022/03/19 00:46:43;;;;;;;16.45;11.88;;;3.60;99.90;;;;;;5013616;28;20056;-74
2022/03/19 00:49:10;;;;;;;16.50;11.85;;;3.50;99.90;;;;;;5014935;28;20046;-73
2022/03/19 00:51:39;;;;;;;19.98;12.40;;;3.50;99.90;;;;;;5013587;28;20042;-78
2022/03/19 00:54:10;;;;;;;20.02;12.02;;;3.50;99.90;;;;;;5013071;28;20379;-80
2022/03/19 00:56:38;;;;;;;17.83;12.43;;;3.50;99.90;;;;;;5025971;28;20037;-82
2022/03/19 00:59:05;;;;;;;21.50;12.77;;;3.50;99.90;;;;;;5030489;28;20382;-74
2022/03/19 01:01:34;;;;;;;16.63;12.68;;;3.50;99.90;;;;;;5032688;28;20041;-80
2022/03/19 01:04:02;;;;;;;21.55;13.07;;;3.40;99.90;;;;;;5015606;28;20049;-76
2022/03/19 01:06:29;;;;;;;21.30;14.15;;;3.00;99.90;;;;;;5033610;28;20051;-79
2022/03/19 01:08:57;;;;;;;61.67;32.53;;;2.90;99.90;;;;;;5034289;28;20454;-75
2022/03/19 01:11:24;;;;;;;31.83;20.52;;;3.20;99.90;;;;;;5033489;28;20041;-76
2022/03/19 01:13:54;;;;;;;23.65;15.68;;;3.20;99.90;;;;;;5016332;28;20050;-73
2022/03/19 01:16:22;;;;;;;24.60;13.35;;;3.20;99.90;;;;;;5033964;28;20044;-77
2022/03/19 01:18:49;;;;;;;21.63;15.00;;;2.80;99.90;;;;;;5023711;28;20058;-78
2022/03/19 01:21:18;;;;;;;21.83;14.82;;;2.80;99.90;;;;;;5013505;28;20117;-81
2022/03/19 01:23:45;;;;;;;27.33;16.38;;;3.10;99.90;;;;;;4996016;28;20553;-73
2022/03/19 01:26:12;;;;;;;21.92;14.25;;;3.10;99.90;;;;;;5005928;28;20046;-81
2022/03/19 01:28:40;;;;;;;23.80;15.00;;;3.00;99.90;;;;;;5014091;28;20070;-78
2022/03/19 01:31:08;;;;;;;22.15;14.90;;;2.70;99.90;;;;;;5013822;28;20054;-76
2022/03/19 01:33:35;;;;;;;21.85;13.77;;;2.60;99.90;;;;;;5014106;28;20804;-76
2022/03/19 01:36:03;;;;;;;23.67;15.63;;;2.30;99.90;;;;;;4995802;28;20472;-77
2022/03/19 01:38:30;;;;;;;18.83;14.10;;;2.20;99.90;;;;;;5013687;28;20397;-73
2022/03/19 01:40:59;;;;;;;23.55;13.15;;;1.80;99.90;;;;;;5013200;28;20037;-77
2022/03/19 01:43:27;;;;;;;19.60;12.02;;;1.40;99.90;;;;;;5013644;28;20130;-75
2022/03/19 01:45:55;;;;;;;17.13;11.88;;;1.30;99.90;;;;;;5013112;28;20429;-76
2022/03/19 01:48:25;;;;;;;17.30;11.95;;;1.20;99.90;;;;;;5013585;28;20041;-77
2022/03/19 01:50:52;;;;;;;17.57;11.90;;;1.30;99.90;;;;;;5013402;28;20548;-76
2022/03/19 01:53:20;;;;;;;18.67;12.38;;;1.50;99.90;;;;;;5013429;28;20501;-76
2022/03/19 01:55:47;;;;;;;18.85;11.15;;;1.50;99.90;;;;;;4995149;28;20069;-75
2022/03/19 01:58:15;;;;;;;18.55;11.93;;;1.50;99.90;;;;;;5013305;28;20069;-79
2022/03/19 02:00:43;;;;;;;16.38;9.13;;;1.60;99.90;;;;;;5013194;28;20044;-72
2022/03/19 02:03:11;;;;;;;14.70;9.30;;;1.20;99.90;;;;;;5013284;28;20052;-78
2022/03/19 02:05:39;;;;;;;12.70;9.65;;;1.10;99.90;;;;;;5012949;28;20476;-78
2022/03/19 02:08:07;;;;;;;18.77;9.30;;;1.10;99.90;;;;;;4995572;28;20497;-74
2022/03/19 02:10:35;;;;;;;14.80;9.75;;;1.10;99.90;;;;;;5012800;28;20145;-79
2022/03/19 02:13:02;;;;;;;11.60;8.88;;;0.90;99.90;;;;;;5013166;28;20474;-77
2022/03/19 02:15:30;;;;;;;14.75;9.30;;;0.80;99.90;;;;;;5012861;28;20046;-78
2022/03/19 02:17:57;;;;;;;13.02;8.93;;;0.80;99.90;;;;;;4999058;28;20056;-79
2022/03/19 02:20:26;;;;;;;18.15;9.98;;;0.80;99.90;;;;;;5033205;28;20046;-79
2022/03/19 02:25:40;;;;;;;14.90;9.23;;;1.10;99.90;;;;;;5032688;28;20130;-81
2022/03/19 02:28:07;;;;;;;13.07;8.77;;;1.30;99.90;;;;;;5033430;28;20489;-81
2022/03/19 02:30:39;;;;;;;14.20;9.00;;;1.20;99.90;;;;;;5033539;28;20048;-85
2022/03/19 02:33:08;;;;;;;14.13;9.88;;;1.50;99.90;;;;;;5033514;28;20064;-77
2022/03/19 02:35:37;;;;;;;16.90;9.15;;;1.90;99.90;;;;;;5032593;28;20068;-75
2022/03/19 02:38:05;;;;;;;14.38;9.70;;;2.00;99.80;;;;;;5032595;28;20048;-75
2022/03/19 02:40:32;;;;;;;12.68;8.95;;;2.00;99.80;;;;;;5032224;28;20045;-80
2022/03/19 02:43:00;;;;;;;14.23;9.52;;;2.00;99.20;;;;;;5032561;28;20045;-77
2022/03/19 02:45:27;;;;;;;25.00;10.02;;;2.00;99.30;;;;;;5032335;28;20049;-86
2022/03/19 02:47:57;;;;;;;13.13;9.93;;;2.10;99.10;;;;;;5033277;28;20448;-81
2022/03/19 02:50:33;;;;;;;15.57;9.70;;;2.10;99.00;;;;;;5032575;28;20044;-79
2022/03/19 02:53:07;;;;;;;18.10;9.25;;;1.90;99.10;;;;;;5032525;28;20401;-80
2022/03/19 02:55:37;;;;;;;14.77;10.02;;;1.90;99.70;;;;;;5033672;28;20045;-86
2022/03/19 02:58:06;;;;;;;15.07;10.20;;;2.00;99.50;;;;;;5033128;28;20409;-86
2022/03/19 03:00:35;;;;;;;14.70;9.95;;;2.00;99.60;;;;;;5015157;28;20050;-86
2022/03/19 03:03:04;;;;;;;17.25;10.32;;;2.00;99.90;;;;;;5033179;28;20389;-76
2022/03/19 03:05:33;;;;;;;15.20;10.55;;;2.10;99.80;;;;;;5031873;28;20408;-75
2022/03/19 03:08:02;;;;;;;17.52;11.65;;;2.10;99.90;;;;;;5014572;28;20041;-78
2022/03/19 03:10:32;;;;;;;18.25;12.82;;;2.10;99.90;;;;;;5014403;28;20064;-83
2022/03/19 03:12:59;;;;;;;20.50;14.05;;;1.90;99.90;;;;;;5031925;28;20045;-78
2022/03/19 03:15:27;;;;;;;22.42;14.48;;;1.90;99.90;;;;;;5031648;28;20041;-80
2022/03/19 03:17:55;;;;;;;24.67;14.98;;;1.80;99.90;;;;;;5014920;28;20142;-83
2022/03/19 03:20:22;;;;;;;22.88;14.40;;;1.90;99.90;;;;;;5032325;28;20042;-90
2022/03/19 03:22:51;;;;;;;19.38;13.75;;;1.90;99.90;;;;;;5015445;28;20068;-86
2022/03/19 03:25:18;;;;;;;23.80;14.80;;;1.80;99.90;;;;;;5031905;28;20041;-80
2022/03/19 03:27:46;;;;;;;20.88;13.10;;;1.70;99.90;;;;;;5014690;28;20041;-79
2022/03/19 03:30:15;;;;;;;23.73;14.13;;;1.70;99.90;;;;;;5032636;28;20052;-83
2022/03/19 03:32:43;;;;;;;20.50;13.43;;;1.70;99.90;;;;;;5015013;28;20096;-84
2022/03/19 03:35:11;;;;;;;21.08;12.60;;;1.70;99.90;;;;;;5032521;28;20501;-84
2022/03/19 03:37:38;;;;;;;18.55;13.48;;;1.70;99.90;;;;;;5015101;28;20117;-82
2022/03/19 03:40:07;;;;;;;21.27;14.25;;;1.70;99.90;;;;;;5032166;28;20045;-83
2022/03/19 03:42:40;;;;;;;22.05;12.18;;;1.70;99.90;;;;;;5032374;28;20400;-83
2022/03/19 03:45:08;;;;;;;18.20;12.70;;;1.70;99.90;;;;;;5014249;28;20115;-82
2022/03/19 03:47:36;;;;;;;21.92;13.15;;;1.60;99.90;;;;;;5015351;28;20144;-78
2022/03/19 03:50:04;;;;;;;23.02;12.73;;;1.60;99.90;;;;;;5014298;28;20396;-81
2022/03/19 03:52:31;;;;;;;19.77;12.25;;;1.60;99.90;;;;;;5031565;28;20076;-75
2022/03/19 03:54:59;;;;;;;19.92;12.93;;;1.70;99.90;;;;;;5031007;28;20037;-74
2022/03/19 03:57:26;;;;;;;16.08;12.23;;;1.60;99.90;;;;;;5031366;28;20053;-83
2022/03/19 03:59:53;;;;;;;18.48;12.80;;;1.60;99.90;;;;;;5031510;28;20401;-81
2022/03/19 04:02:21;;;;;;;20.38;12.63;;;1.60;99.90;;;;;;5031637;28;20396;-81
2022/03/19 04:04:48;;;;;;;16.83;12.38;;;1.60;99.90;;;;;;5032129;28;20038;-86
2022/03/19 04:07:15;;;;;;;18.67;12.52;;;1.40;99.90;;;;;;5031366;28;20071;-83
2022/03/19 04:09:42;;;;;;;16.98;11.98;;;1.40;99.90;;;;;;5031321;28;20053;-75
2022/03/19 04:12:10;;;;;;;20.25;12.35;;;1.50;99.90;;;;;;5014094;28;20553;-73
2022/03/19 04:14:38;;;;;;;21.35;12.73;;;1.20;99.90;;;;;;5031604;28;20531;-78
2022/03/19 04:17:06;;;;;;;20.70;12.23;;;1.20;99.90;;;;;;5032071;28;20120;-82
2022/03/19 04:19:33;;;;;;;22.48;12.70;;;1.20;99.90;;;;;;5032270;28;20438;-89
2022/03/19 04:22:00;;;;;;;17.52;12.25;;;1.20;99.90;;;;;;5032643;28;20045;-76
2022/03/19 04:24:28;;;;;;;20.98;12.73;;;1.40;99.90;;;;;;5034040;28;20037;-94
2022/03/19 04:26:56;;;;;;;21.73;12.93;;;1.40;99.90;;;;;;5032481;28;20128;-77
2022/03/19 04:29:24;;;;;;;20.15;12.70;;;1.50;99.90;;;;;;5030916;28;20042;-78
2022/03/19 04:31:51;;;;;;;19.67;12.80;;;1.40;99.90;;;;;;5031116;28;20485;-77
2022/03/19 04:34:19;;;;;;;19.48;13.35;;;1.20;99.90;;;;;;5031369;28;20076;-80
2022/03/19 04:36:47;;;;;;;20.95;12.80;;;1.10;99.90;;;;;;5031098;28;20409;-78
2022/03/19 04:39:15;;;;;;;17.15;12.27;;;1.00;99.90;;;;;;5031044;28;20042;-73
2022/03/19 04:41:42;;;;;;;21.58;13.00;;;1.00;99.90;;;;;;5030882;28;20505;-75
2022/03/19 04:44:09;;;;;;;21.00;11.63;;;1.00;99.90;;;;;;5031093;28;20061;-77
2022/03/19 04:46:37;;;;;;;22.25;12.60;;;0.90;99.90;;;;;;5030515;28;20393;-79
2022/03/19 04:49:04;;;;;;;15.60;11.25;;;0.80;99.90;;;;;;5030355;28;20045;-76
2022/03/19 04:51:33;;;;;;;17.08;10.93;;;0.90;99.90;;;;;;5013544;28;20509;-75
2022/03/19 04:54:01;;;;;;;16.48;11.13;;;1.00;99.90;;;;;;5030888;28;20052;-81
2022/03/19 04:56:29;;;;;;;16.45;10.93;;;1.00;99.90;;;;;;5031233;28;20393;-80
2022/03/19 04:58:59;;;;;;;14.30;10.27;;;1.00;99.90;;;;;;5034174;28;20049;-81
2022/03/19 05:01:28;;;;;;;14.88;10.68;;;1.10;99.90;;;;;;5034050;28;20042;-76
2022/03/19 05:03:55;;;;;;;17.17;11.15;;;1.10;99.90;;;;;;5034206;28;20045;-84
2022/03/19 05:06:23;;;;;;;14.77;10.73;;;1.10;99.90;;;;;;5017039;28;20489;-79
2022/03/19 05:11:36;;;;;;;12.80;9.57;;;1.30;99.90;;;;;;5034128;28;20050;-81
2022/03/19 05:14:04;;;;;;;14.65;10.45;;;1.10;99.90;;;;;;5033896;28;20074;-80
2022/03/19 05:16:32;;;;;;;15.98;10.73;;;1.20;99.90;;;;;;5034410;28;20041;-84
2022/03/19 05:18:59;;;;;;;17.50;10.48;;;1.00;99.90;;;;;;5033883;28;20138;-79
2022/03/19 05:21:27;;;;;;;15.63;10.65;;;1.00;99.90;;;;;;5033654;28;20531;-79
2022/03/19 05:23:55;;;;;;;15.90;11.38;;;1.10;99.90;;;;;;5033670;28;20116;-76
2022/03/19 05:26:22;;;;;;;17.90;11.80;;;1.20;99.90;;;;;;5033908;28;20404;-75
2022/03/19 05:28:49;;;;;;;17.17;11.57;;;1.20;99.90;;;;;;5033181;28;20042;-73
2022/03/19 05:31:32;;;;;;;17.27;12.25;;;1.00;99.90;;;;;;5033628;28;20448;-76
2022/03/19 05:36:45;;;;;;;18.75;12.43;;;0.90;99.90;;;;;;5033291;28;20037;-74
2022/03/19 05:39:13;;;;;;;20.38;13.20;;;1.00;99.90;;;;;;5035844;28;20041;-75
2022/03/19 05:41:40;;;;;;;23.85;13.50;;;1.20;99.90;;;;;;5036343;28;20560;-80
2022/03/19 05:44:07;;;;;;;25.30;14.52;;;0.90;99.90;;;;;;5033821;28;20049;-82
2022/03/19 05:46:34;;;;;;;23.98;15.02;;;0.70;99.90;;;;;;5033503;28;20124;-76
2022/03/19 05:49:02;;;;;;;23.08;15.07;;;1.00;99.90;;;;;;5035467;28;20041;-77
2022/03/19 05:51:29;;;;;;;25.77;15.18;;;1.20;99.90;;;;;;5018536;28;20049;-77
2022/03/19 05:53:56;;;;;;;20.55;14.38;;;1.20;99.90;;;;;;5020403;28;20041;-74
2022/03/19 05:56:24;;;;;;;21.48;14.93;;;0.90;99.90;;;;;;5039330;28;20511;-82
2022/03/19 05:58:52;;;;;;;26.63;15.48;;;0.90;99.90;;;;;;5043790;28;20076;-74
2022/03/19 06:01:25;;;;;;;21.85;13.43;;;1.30;99.90;;;;;;5034674;28;20044;-82
2022/03/19 06:03:54;;;;;;;17.17;13.57;;;1.20;99.90;;;;;;5034623;28;20396;-85
2022/03/19 06:06:22;;;;;;;17.50;11.98;;;1.10;99.90;;;;;;5034681;28;20394;-86
2022/03/19 06:08:50;;;;;;;17.70;12.85;;;1.00;99.90;;;;;;4999864;28;20523;-81
2022/03/19 06:11:17;;;;;;;22.23;12.85;;;1.00;99.90;;;;;;5034221;28;20037;-85
2022/03/19 06:13:45;;;;;;;18.67;11.80;;;1.10;99.90;;;;;;5033291;28;20048;-87
2022/03/19 06:16:13;;;;;;;20.50;12.68;;;1.30;99.90;;;;;;5033958;28;20396;-85
2022/03/19 06:18:46;;;;;;;15.52;11.27;;;1.30;99.90;;;;;;5033389;28;20136;-76
2022/03/19 06:21:14;;;;;;;15.60;11.48;;;1.20;99.90;;;;;;5033298;28;20136;-71
2022/03/19 06:23:41;;;;;;;13.68;9.88;;;1.40;99.90;;;;;;5033387;28;20400;-74
2022/03/19 06:26:08;;;;;;;15.50;10.43;;;1.10;99.90;;;;;;5033770;28;20121;-76
2022/03/19 06:28:36;;;;;;;17.55;10.52;;;1.30;99.90;;;;;;5033822;28;20396;-85
2022/03/19 06:31:03;;;;;;;15.95;11.20;;;1.20;99.90;;;;;;5033557;28;20061;-79
2022/03/19 06:33:32;;;;;;;21.38;11.60;;;1.30;99.90;;;;;;5034353;28;20037;-84
2022/03/19 06:38:46;;;;;;;16.10;11.65;;;2.00;99.90;;;;;;5039838;28;20121;-77
2022/03/19 06:41:14;;;;;;;22.23;11.25;;;2.00;99.90;;;;;;5035959;28;20045;-76
2022/03/19 06:43:43;;;;;;;16.42;10.75;;;2.10;99.90;;;;;;5038365;28;20056;-81
2022/03/19 06:46:10;;;;;;;17.38;10.95;;;2.30;99.90;;;;;;5014745;28;20041;-78
2022/03/19 06:48:37;;;;;;;20.50;11.43;;;2.30;99.90;;;;;;5032210;28;20523;-76
2022/03/19 06:51:04;;;;;;;13.85;10.68;;;2.40;99.90;;;;;;5032271;28;20045;-74
2022/03/19 06:53:32;;;;;;;17.20;10.98;;;2.60;99.90;;;;;;5032279;28;20048;-78
2022/03/19 06:55:59;;;;;;;17.02;11.40;;;2.60;99.90;;;;;;5014722;28;20045;-76
2022/03/19 06:58:27;;;;;;;23.17;14.98;;;2.70;99.90;;;;;;5032170;28;20053;-72
2022/03/19 07:00:55;;;;;;;53.65;28.42;;;2.70;99.90;;;;;;5022154;28;20044;-74
2022/03/19 07:03:22;;;;;;;28.50;17.27;;;3.20;99.90;;;;;;5020900;28;20548;-73
2022/03/19 07:05:50;;;;;;;135.52;68.55;;;2.90;99.90;;;;;;5020801;28;20042;-71
2022/03/19 07:08:21;;;;;;;177.45;84.68;;;3.10;99.90;;;;;;5026227;28;20037;-74
2022/03/19 07:10:49;;;;;;;29.70;20.88;;;3.50;99.90;;;;;;5021476;28;20120;-77
2022/03/19 07:13:16;;;;;;;18.88;14.13;;;3.50;99.90;;;;;;5022663;28;20042;-76
2022/03/19 07:15:44;;;;;;;22.38;13.75;;;3.50;99.90;;;;;;5020502;28;20064;-75
2022/03/19 07:18:11;;;;;;;20.02;13.85;;;3.50;99.70;;;;;;5021351;28;20055;-81
2022/03/19 07:20:38;;;;;;;21.00;12.45;;;3.50;99.20;;;;;;5021250;28;20043;-76
2022/03/19 07:23:07;;;;;;;18.05;13.40;;;3.30;99.30;;;;;;5020945;28;20430;-80
2022/03/19 07:25:39;;;;;;;20.13;12.88;;;3.40;99.10;;;;;;5020271;28;20049;-79
2022/03/19 07:28:09;;;;;;;20.58;13.02;;;3.40;99.50;;;;;;5007965;28;20041;-75
2022/03/19 07:30:38;;;;;;;20.95;13.05;;;3.50;99.40;;;;;;5007280;28;20551;-72
2022/03/19 07:33:06;;;;;;;19.48;12.48;;;3.50;99.40;;;;;;5022438;28;20037;-75
2022/03/19 07:35:34;;;;;;;18.83;12.65;;;3.50;98.80;;;;;;5017748;28;20409;-78
2022/03/19 07:38:02;;;;;;;20.20;12.95;;;3.60;99.50;;;;;;5021147;28;20124;-73
2022/03/19 07:43:19;;;;;;;17.63;12.80;;;3.60;98.90;;;;;;5000865;28;20048;-77
2022/03/19 07:45:49;;;;;;;20.80;12.95;;;3.50;99.10;;;;;;5019863;28;20048;-75
2022/03/19 07:48:16;;;;;;;17.40;11.95;;;3.40;99.80;;;;;;5021244;28;20034;-75
2022/03/19 07:50:54;;;;;;;16.33;11.80;;;3.60;99.80;;;;;;5021136;28;20042;-74
2022/03/19 07:53:22;;;;;;;19.20;12.55;;;3.80;99.20;;;;;;4979461;28;20034;-73
2022/03/19 07:55:54;;;;;;;23.27;13.13;;;4.00;97.90;;;;;;5002284;28;20052;-73
2022/03/19 07:58:22;;;;;;;17.33;12.70;;;3.90;97.10;;;;;;5019062;28;20040;-74
2022/03/19 08:00:50;;;;;;;22.17;11.57;;;3.90;97.20;;;;;;5019197;28;20053;-75
2022/03/19 08:03:19;;;;;;;119.63;55.25;;;4.00;96.40;;;;;;5017861;28;20045;-75
2022/03/19 08:05:47;;;;;;;39.07;23.67;;;4.30;96.40;;;;;;5021409;28;20148;-78
2022/03/19 08:08:14;;;;;;;115.57;57.85;;;4.60;95.10;;;;;;5022379;28;20283;-75
2022/03/19 08:10:43;;;;;;;19.77;13.00;;;4.70;90.10;;;;;;4997556;28;20045;-81
2022/03/19 08:13:11;;;;;;;17.02;11.60;;;4.60;91.00;;;;;;5016017;28;20054;-71
2022/03/19 08:15:40;;;;;;;22.67;14.73;;;4.50;88.50;;;;;;5027564;28;20126;-79
2022/03/19 08:18:10;;;;;;;19.88;13.95;;;4.70;90.60;;;;;;5022064;28;20520;-75
2022/03/19 08:20:39;;;;;;;26.17;17.20;;;5.10;91.00;;;;;;5019954;28;20049;-71
2022/03/19 08:23:06;;;;;;;18.85;12.32;;;5.40;90.80;;;;;;5011875;28;20041;-73
2022/03/19 08:25:34;;;;;;;21.45;12.18;;;5.40;89.40;;;;;;5027883;28;20053;-73
2022/03/19 08:28:01;;;;;;;17.15;11.40;;;5.40;89.20;;;;;;5028466;28;20064;-73
2022/03/19 08:30:32;;;;;;;20.08;11.10;;;5.30;88.20;;;;;;5013657;28;20112;-72
2022/03/19 08:32:59;;;;;;;16.48;10.32;;;5.40;84.40;;;;;;5034139;28;20045;-76
2022/03/19 08:35:27;;;;;;;13.85;10.15;;;5.50;82.00;;;;;;5033781;28;20443;-73
2022/03/19 08:40:40;;;;;;;16.48;9.48;;;5.70;75.10;;;;;;5034061;28;20838;-72
2022/03/19 08:43:08;;;;;;;14.82;9.65;;;5.80;75.30;;;;;;5033128;28;20045;-75
2022/03/19 08:45:35;;;;;;;13.35;10.02;;;5.90;76.80;;;;;;5019776;28;20048;-71
2022/03/19 08:48:03;;;;;;;12.00;9.38;;;6.20;78.00;;;;;;5035958;28;20061;-79
2022/03/19 08:50:30;;;;;;;13.38;10.02;;;6.40;76.30;;;;;;5043975;28;20406;-75
2022/03/19 08:52:57;;;;;;;12.35;9.65;;;6.70;76.40;;;;;;5033332;28;20044;-78
2022/03/19 08:55:25;;;;;;;10.85;8.48;;;6.80;74.80;;;;;;5034021;28;20048;-76
2022/03/19 08:57:52;;;;;;;11.77;7.70;;;6.80;68.80;;;;;;5032662;28;20029;-76
2022/03/19 09:00:19;;;;;;;12.15;7.95;;;6.90;66.20;;;;;;5031774;28;20096;-77
2022/03/19 09:02:48;;;;;;;11.63;7.82;;;7.10;64.50;;;;;;5033466;28;20099;-80
2022/03/19 09:05:16;;;;;;;9.50;7.20;;;7.30;63.40;;;;;;5033373;28;20495;-79
2022/03/19 09:07:43;;;;;;;10.75;7.80;;;7.40;62.40;;;;;;5014937;28;20140;-79
2022/03/19 09:10:11;;;;;;;13.57;9.15;;;7.20;62.10;;;;;;5033589;28;20045;-76
2022/03/19 09:12:39;;;;;;;14.50;9.43;;;7.30;61.30;;;;;;5034131;28;20107;-79
2022/03/19 09:15:09;;;;;;;58.65;32.60;;;7.10;62.60;;;;;;5006518;28;20610;-76
2022/03/19 09:17:38;;;;;;;71.95;41.85;;;7.40;63.90;;;;;;5014294;28;20038;-81
2022/03/19 09:20:06;;;;;;;25.05;17.92;;;7.80;66.20;;;;;;5014192;28;20080;-75
2022/03/19 09:22:33;;;;;;;14.73;10.70;;;8.20;67.10;;;;;;4996788;28;20038;-74
2022/03/19 09:25:01;;;;;;;11.45;8.70;;;8.20;59.30;;;;;;5013525;28;20735;-77
2022/03/19 09:27:28;;;;;;;11.32;8.30;;;8.00;59.20;;;;;;5013497;28;20050;-78
2022/03/19 09:29:55;;;;;;;12.18;7.68;;;7.90;57.90;;;;;;4980324;28;20054;-75
2022/03/19 09:32:23;;;;;;;11.00;7.85;;;7.70;58.20;;;;;;5013645;28;20033;-78
2022/03/19 09:34:52;;;;;;;17.15;8.80;;;7.90;58.50;;;;;;4996665;28;20509;-72
2022/03/19 09:37:19;;;;;;;12.40;8.75;;;8.00;58.20;;;;;;5013256;28;20406;-78
2022/03/19 09:39:49;;;;;;;20.00;8.25;;;8.30;62.00;;;;;;5013787;28;20451;-72
2022/03/19 09:42:16;;;;;;;13.73;8.38;;;8.50;62.20;;;;;;5013198;28;20037;-74
2022/03/19 09:44:44;;;;;;;38.10;21.58;;;8.70;60.50;;;;;;5012631;28;20504;-73
2022/03/19 09:47:12;;;;;;;51.85;27.30;;;8.70;59.60;;;;;;5013421;28;20056;-77
2022/03/19 09:49:40;;;;;;;15.00;10.52;;;8.80;59.10;;;;;;4995925;28;20046;-78
2022/03/19 09:52:10;;;;;;;11.63;7.88;;;8.50;55.00;;;;;;5013436;28;20496;-79
2022/03/19 09:54:38;;;;;;;9.38;7.20;;;8.50;55.70;;;;;;5013822;28;20065;-81
2022/03/19 09:57:05;;;;;;;12.73;7.13;;;8.00;55.10;;;;;;5013524;28;20042;-80
2022/03/19 09:59:34;;;;;;;16.13;9.25;;;8.00;54.20;;;;;;5013965;28;20051;-74
2022/03/19 10:02:05;;;;;;;14.00;7.20;;;8.90;61.70;;;;;;5013704;28;20185;-80
2022/03/19 10:04:37;;;;;;;11.02;7.82;;;9.60;57.50;;;;;;5013089;28;20045;-73
2022/03/19 10:09:52;;;;;;;9.80;6.75;;;9.60;58.10;;;;;;5012968;28;20056;-76
2022/03/19 10:12:22;;;;;;;9.75;6.93;;;9.70;55.50;;;;;;5013263;28;20383;-75
2022/03/19 10:14:53;;;;;;;8.87;6.80;;;9.10;52.90;;;;;;5013039;28;20117;-76
2022/03/19 10:17:34;;;;;;;13.75;8.32;;;9.10;51.20;;;;;;5013114;28;20367;-72
2022/03/19 10:20:11;;;;;;;9.25;7.28;;;9.70;56.00;;;;;;5031385;28;20045;-77
2022/03/19 10:22:43;;;;;;;10.00;7.50;;;9.20;51.00;;;;;;5032504;28;20042;-76
2022/03/19 10:25:13;;;;;;;9.82;7.55;;;9.00;50.90;;;;;;5032562;28;20060;-76
2022/03/19 10:27:42;;;;;;;9.55;6.57;;;9.10;52.40;;;;;;5032500;28;20042;-77
2022/03/19 10:30:16;;;;;;;10.23;7.35;;;9.50;52.30;;;;;;5032703;28;20049;-76
2022/03/19 10:32:51;;;;;;;11.88;8.15;;;9.50;50.70;;;;;;5032897;28;20418;-76
2022/03/19 10:35:30;;;;;;;8.95;7.13;;;9.20;50.70;;;;;;5014585;28;20084;-76
2022/03/19 10:38:00;;;;;;;11.88;7.50;;;9.10;50.80;;;;;;5032471;28;20120;-75
2022/03/19 10:40:42;;;;;;;9.43;6.83;;;9.30;50.80;;;;;;5032689;28;20117;-76
2022/03/19 10:43:11;;;;;;;9.35;6.93;;;9.30;50.50;;;;;;5032288;28;20045;-77
2022/03/19 10:45:46;;;;;;;9.52;6.78;;;9.00;50.00;;;;;;5032738;28;20067;-77
2022/03/19 10:48:18;;;;;;;9.02;6.95;;;9.40;50.40;;;;;;5032566;28;20092;-77
2022/03/19 10:50:45;;;;;;;10.98;6.80;;;9.90;50.40;;;;;;5032246;28;20041;-78
2022/03/19 10:53:14;;;;;;;11.88;7.20;;;10.30;48.80;;;;;;5031959;28;20404;-75
2022/03/19 10:55:41;;;;;;;10.70;6.97;;;9.70;48.20;;;;;;5032123;28;20049;-76
2022/03/19 10:58:09;;;;;;;12.32;7.53;;;9.60;48.50;;;;;;5049590;28;20136;-76
2022/03/19 11:00:59;;;;;;;8.90;7.00;;;10.00;49.30;;;;;;5034313;28;20045;-75
2022/03/19 11:03:30;;;;;;;10.27;6.60;;;9.90;48.50;;;;;;5051889;28;20365;-76
2022/03/19 11:06:06;;;;;;;10.65;6.40;;;9.90;48.10;;;;;;5051576;28;20037;-76
2022/03/19 11:08:43;;;;;;;7.90;6.07;;;10.50;47.20;;;;;;5047520;28;20104;-75
2022/03/19 11:11:38;;;;;;;9.35;7.30;;;10.20;46.70;;;;;;5031684;28;20049;-76
2022/03/19 11:14:08;;;;;;;8.95;6.50;;;10.10;47.50;;;;;;5001664;28;20053;-76
2022/03/19 11:16:37;;;;;;;10.90;7.13;;;10.50;46.50;;;;;;5013988;28;20520;-77
2022/03/19 11:19:04;;;;;;;27.95;15.95;;;10.30;46.10;;;;;;5001455;28;20120;-73
2022/03/19 11:21:33;;;;;;;21.63;13.23;;;10.90;49.60;;;;;;5011532;28;20046;-74
2022/03/19 11:24:10;;;;;;;14.35;9.88;;;11.40;50.80;;;;;;5011885;28;20048;-71
2022/03/19 11:26:38;;;;;;;13.65;7.75;;;11.80;46.10;;;;;;5011542;28;20613;-73
2022/03/19 11:29:06;;;;;;;9.88;7.03;;;12.20;48.50;;;;;;5011826;28;20038;-72
2022/03/19 11:31:33;;;;;;;11.90;8.27;;;11.10;43.50;;;;;;5011459;28;20621;-75
2022/03/19 11:34:16;;;;;;;10.82;7.95;;;11.80;47.00;;;;;;5011390;28;20068;-75
2022/03/19 11:37:02;;;;;;;11.70;6.70;;;12.10;44.30;;;;;;5011199;28;20053;-75
2022/03/19 11:39:29;;;;;;;16.48;7.70;;;11.50;45.40;;;;;;5011325;28;20041;-75
2022/03/19 11:41:56;;;;;;;16.85;8.25;;;12.20;48.90;;;;;;5011397;28;20038;-74
2022/03/19 11:44:25;;;;;;;13.23;7.85;;;12.60;47.20;;;;;;5010136;28;20401;-72
2022/03/19 11:46:57;;;;;;;7.80;5.78;;;11.90;45.10;;;;;;5009493;28;20425;-74
2022/03/19 11:49:43;;;;;;;9.20;6.25;;;12.00;41.80;;;;;;5010995;28;20073;-73
2022/03/19 11:52:10;;;;;;;10.50;6.65;;;12.00;43.30;;;;;;5011222;28;20074;-76
2022/03/19 11:55:03;;;;;;;11.98;8.02;;;13.30;43.10;;;;;;5011384;28;20037;-72
2022/03/19 11:57:45;;;;;;;21.52;10.48;;;12.80;47.90;;;;;;4994072;28;20038;-75
2022/03/19 12:00:18;;;;;;;15.30;8.15;;;14.00;43.70;;;;;;5011106;28;20612;-75
2022/03/19 12:03:19;;;;;;;10.02;6.40;;;12.70;43.10;;;;;;4993702;28;20042;-74
2022/03/19 12:05:47;;;;;;;;;;;12.50;42.10;;;;;;5011618;28;20046;-73
2022/03/19 12:08:22;;;;;;;8.30;6.20;;;12.60;42.40;;;;;;5015456;28;19928;-74
2022/03/19 12:11:01;;;;;;;11.43;7.00;;;12.10;41.70;;;;;;5015177;28;20038;-74
2022/03/19 12:13:28;;;;;;;58.28;33.33;;;12.80;41.70;;;;;;5015334;28;20516;-72
2022/03/19 12:15:56;;;;;;;20.27;14.48;;;12.60;42.20;;;;;;5015758;28;20414;-74
2022/03/19 12:18:33;;;;;;;8.65;6.38;;;12.50;42.10;;;;;;5021842;28;20127;-76
2022/03/19 12:21:04;;;;;;;9.20;6.10;;;12.00;40.50;;;;;;5000829;28;20057;-79
2022/03/19 12:23:44;;;;;;;7.35;5.47;;;12.10;40.80;;;;;;5000852;28;20042;-77
2022/03/19 12:26:14;;;;;;;9.15;5.85;;;11.60;40.70;;;;;;5034744;28;20049;-79
2022/03/19 12:28:43;;;;;;;8.20;5.65;;;11.90;40.90;;;;;;5017102;28;20087;-76
2022/03/19 12:31:13;;;;;;;7.93;5.70;;;12.20;41.00;;;;;;5034592;28;20045;-76
2022/03/19 12:33:43;;;;;;;9.05;6.05;;;12.40;41.10;;;;;;5034364;28;20048;-78
2022/03/19 12:36:12;;;;;;;10.73;5.22;;;12.00;40.90;;;;;;5034477;28;20048;-76
2022/03/19 12:38:39;;;;;;;8.85;5.78;;;12.40;39.90;;;;;;5034887;28;20056;-79
2022/03/19 12:41:29;;;;;;;8.45;5.65;;;12.60;40.20;;;;;;5016794;28;20053;-78
2022/03/19 12:44:23;;;;;;;8.93;6.05;;;13.40;39.30;;;;;;5033486;28;20087;-79
2022/03/19 12:46:59;;;;;;;11.02;8.98;;;14.70;39.00;;;;;;5032777;28;20598;-77
2022/03/19 12:49:28;;;;;;;8.65;6.18;;;14.90;37.60;;;;;;5032528;28;20466;-76
2022/03/19 12:51:56;;;;;;;8.45;5.32;;;14.90;37.20;;;;;;5032509;28;20042;-77
2022/03/19 12:54:31;;;;;;;7.47;5.28;;;15.30;36.70;;;;;;5032908;28;20042;-78
2022/03/19 12:57:10;;;;;;;9.70;5.88;;;15.90;37.10;;;;;;5032413;28;20037;-75
2022/03/19 12:59:51;;;;;;;7.68;5.82;;;15.20;36.70;;;;;;5033616;28;20456;-77
2022/03/19 13:02:18;;;;;;;;;;;15.20;37.20;;;;;;5016819;28;20441;-75
2022/03/19 13:04:49;;;;;;;10.10;6.28;;;15.90;36.90;;;;;;5029885;28;20447;-75
2022/03/19 13:07:18;;;;;;;9.65;6.30;;;15.80;36.60;;;;;;5052038;28;20384;-74
2022/03/19 13:09:45;;;;;;;10.48;5.93;;;16.70;36.20;;;;;;5015703;28;20046;-76
2022/03/19 13:12:21;;;;;;;10.82;6.68;;;16.70;35.50;;;;;;5033873;28;20120;-75